Dane, Wisconsin
Current Conditions -  °F | °C
As of 4:15 AM on Saturday 25 Oct 2014 (Local Time) from KC29 Reporting Station
Clear Clear  
Wind Chill: 57°   Ceiling: Unl
Heat Index: 57°   Visibility: 5mi
Dew Point: 56°   Wind: 10mph
Humidity: 98%   Direction: 270°W
Pressure: 29.89"   Gusts: NA
Location:  43.25°N, 89.5°W
Report Text: KC29 250915Z AUTO 27009KT 5SM CLR 14/14 A2989 RMK AO1 T01380135
Loading
Personal Weather Stations






























Interactive Weather Map
Tropical Storm Tracking
New forecast layout! Learn more

10-Day Weather Forecast

Advertisements
Track Severe Weather on mobile